sensor_id;sensor_type;location;lat;lon;timestamp;temperature;humidity
9116;DHT22;4593;53.652;10.168;2023-05-18T00:02:00;6.60;78.10
9116;DHT22;4593;53.652;10.168;2023-05-18T00:04:26;6.60;77.80
9116;DHT22;4593;53.652;10.168;2023-05-18T00:06:53;6.70;77.50
9116;DHT22;4593;53.652;10.168;2023-05-18T00:09:25;6.80;77.70
9116;DHT22;4593;53.652;10.168;2023-05-18T00:11:51;6.80;78.20
9116;DHT22;4593;53.652;10.168;2023-05-18T00:14:17;6.90;78.70
9116;DHT22;4593;53.652;10.168;2023-05-18T00:16:43;6.90;78.20
9116;DHT22;4593;53.652;10.168;2023-05-18T00:19:09;7.00;77.50
9116;DHT22;4593;53.652;10.168;2023-05-18T00:21:34;7.10;77.20
9116;DHT22;4593;53.652;10.168;2023-05-18T00:24:00;7.10;77.20
9116;DHT22;4593;53.652;10.168;2023-05-18T00:26:26;7.20;77.50
9116;DHT22;4593;53.652;10.168;2023-05-18T00:28:52;7.20;76.70
9116;DHT22;4593;53.652;10.168;2023-05-18T00:31:18;7.20;76.60
9116;DHT22;4593;53.652;10.168;2023-05-18T00:33:43;7.30;76.60
9116;DHT22;4593;53.652;10.168;2023-05-18T00:36:09;7.30;76.30
9116;DHT22;4593;53.652;10.168;2023-05-18T00:38:35;7.40;76.00
9116;DHT22;4593;53.652;10.168;2023-05-18T00:41:01;7.50;76.30
9116;DHT22;4593;53.652;10.168;2023-05-18T00:43:27;7.50;76.20
9116;DHT22;4593;53.652;10.168;2023-05-18T00:45:52;7.50;75.40
9116;DHT22;4593;53.652;10.168;2023-05-18T00:48:18;7.60;74.50
9116;DHT22;4593;53.652;10.168;2023-05-18T00:50:44;7.60;73.60
9116;DHT22;4593;53.652;10.168;2023-05-18T00:53:10;7.60;73.30
9116;DHT22;4593;53.652;10.168;2023-05-18T00:55:36;7.60;72.80
9116;DHT22;4593;53.652;10.168;2023-05-18T00:58:02;7.70;73.10
9116;DHT22;4593;53.652;10.168;2023-05-18T01:00:30;7.70;73.00
9116;DHT22;4593;53.652;10.168;2023-05-18T01:02:56;7.70;73.30
9116;DHT22;4593;53.652;10.168;2023-05-18T01:05:21;7.60;73.40
9116;DHT22;4593;53.652;10.168;2023-05-18T01:07:47;7.60;73.40
9116;DHT22;4593;53.652;10.168;2023-05-18T01:10:16;7.60;73.50
9116;DHT22;4593;53.652;10.168;2023-05-18T01:13:00;7.60;72.70
9116;DHT22;4593;53.652;10.168;2023-05-18T01:15:48;7.60;72.30
9116;DHT22;4593;53.652;10.168;2023-05-18T01:18:29;7.60;72.60
9116;DHT22;4593;53.652;10.168;2023-05-18T01:21:17;7.50;72.80
9116;DHT22;4593;53.652;10.168;2023-05-18T01:24:57;7.50;73.50
9116;DHT22;4593;53.652;10.168;2023-05-18T01:26:51;7.50;73.40
9116;DHT22;4593;53.652;10.168;2023-05-18T01:29:22;7.50;73.70
9116;DHT22;4593;53.652;10.168;2023-05-18T01:31:49;7.50;74.00
9116;DHT22;4593;53.652;10.168;2023-05-18T01:34:15;7.50;74.30
9116;DHT22;4593;53.652;10.168;2023-05-18T01:36:40;7.50;73.80
9116;DHT22;4593;53.652;10.168;2023-05-18T01:39:07;7.50;73.90
9116;DHT22;4593;53.652;10.168;2023-05-18T01:41:36;7.50;74.00
9116;DHT22;4593;53.652;10.168;2023-05-18T01:44:42;7.50;73.90
9116;DHT22;4593;53.652;10.168;2023-05-18T01:47:13;7.40;74.20
9116;DHT22;4593;53.652;10.168;2023-05-18T01:49:44;7.40;74.40
9116;DHT22;4593;53.652;10.168;2023-05-18T01:52:16;7.30;74.80
9116;DHT22;4593;53.652;10.168;2023-05-18T01:54:44;7.30;74.90
9116;DHT22;4593;53.652;10.168;2023-05-18T01:57:13;7.30;74.90
9116;DHT22;4593;53.652;10.168;2023-05-18T01:59:40;7.20;75.40
9116;DHT22;4593;53.652;10.168;2023-05-18T02:02:07;7.20;75.70
9116;DHT22;4593;53.652;10.168;2023-05-18T02:04:33;7.20;76.30
9116;DHT22;4593;53.652;10.168;2023-05-18T02:06:59;7.20;76.60
9116;DHT22;4593;53.652;10.168;2023-05-18T02:09:25;7.20;77.30
9116;DHT22;4593;53.652;10.168;2023-05-18T02:11:51;7.10;77.70
9116;DHT22;4593;53.652;10.168;2023-05-18T02:14:16;7.20;78.30
9116;DHT22;4593;53.652;10.168;2023-05-18T02:16:42;7.10;78.20
9116;DHT22;4593;53.652;10.168;2023-05-18T02:19:12;7.20;77.80
9116;DHT22;4593;53.652;10.168;2023-05-18T02:21:39;7.10;77.60
9116;DHT22;4593;53.652;10.168;2023-05-18T02:24:06;7.10;77.30
9116;DHT22;4593;53.652;10.168;2023-05-18T02:26:32;7.10;77.00
9116;DHT22;4593;53.652;10.168;2023-05-18T02:28:57;7.10;76.70
9116;DHT22;4593;53.652;10.168;2023-05-18T02:31:23;7.00;76.40
9116;DHT22;4593;53.652;10.168;2023-05-18T02:33:49;7.00;76.80
9116;DHT22;4593;53.652;10.168;2023-05-18T02:36:14;7.00;76.80
9116;DHT22;4593;53.652;10.168;2023-05-18T02:38:43;7.00;76.60
9116;DHT22;4593;53.652;10.168;2023-05-18T02:41:09;7.00;77.30
9116;DHT22;4593;53.652;10.168;2023-05-18T02:43:35;7.00;77.90
9116;DHT22;4593;53.652;10.168;2023-05-18T02:46:01;7.00;77.80
9116;DHT22;4593;53.652;10.168;2023-05-18T02:48:27;7.00;77.60
9116;DHT22;4593;53.652;10.168;2023-05-18T02:50:53;7.00;76.90
9116;DHT22;4593;53.652;10.168;2023-05-18T02:53:20;6.90;76.90
9116;DHT22;4593;53.652;10.168;2023-05-18T02:55:46;7.00;77.30
9116;DHT22;4593;53.652;10.168;2023-05-18T02:58:12;6.90;77.20
9116;DHT22;4593;53.652;10.168;2023-05-18T03:00:38;7.00;76.90
9116;DHT22;4593;53.652;10.168;2023-05-18T03:03:04;7.00;76.60
9116;DHT22;4593;53.652;10.168;2023-05-18T03:05:30;7.00;76.20
9116;DHT22;4593;53.652;10.168;2023-05-18T03:07:55;7.00;76.10
9116;DHT22;4593;53.652;10.168;2023-05-18T03:10:22;7.00;76.40
9116;DHT22;4593;53.652;10.168;2023-05-18T03:12:48;7.00;76.00
9116;DHT22;4593;53.652;10.168;2023-05-18T03:15:13;7.00;75.80
9116;DHT22;4593;53.652;10.168;2023-05-18T03:17:41;7.00;75.90
9116;DHT22;4593;53.652;10.168;2023-05-18T03:20:07;7.00;75.80
9116;DHT22;4593;53.652;10.168;2023-05-18T03:22:41;7.00;75.60
9116;DHT22;4593;53.652;10.168;2023-05-18T03:25:07;7.00;76.20
9116;DHT22;4593;53.652;10.168;2023-05-18T03:27:33;7.10;75.40
9116;DHT22;4593;53.652;10.168;2023-05-18T03:29:59;7.10;74.80
9116;DHT22;4593;53.652;10.168;2023-05-18T03:32:24;7.10;75.20
9116;DHT22;4593;53.652;10.168;2023-05-18T03:34:51;7.10;74.60
9116;DHT22;4593;53.652;10.168;2023-05-18T03:37:17;7.10;73.00
9116;DHT22;4593;53.652;10.168;2023-05-18T03:39:43;7.10;73.00
9116;DHT22;4593;53.652;10.168;2023-05-18T03:42:09;7.20;73.10
9116;DHT22;4593;53.652;10.168;2023-05-18T03:44:36;7.20;72.90
9116;DHT22;4593;53.652;10.168;2023-05-18T03:47:01;7.20;73.50
9116;DHT22;4593;53.652;10.168;2023-05-18T03:49:27;7.30;73.50
9116;DHT22;4593;53.652;10.168;2023-05-18T03:51:55;7.30;73.10
9116;DHT22;4593;53.652;10.168;2023-05-18T03:54:21;7.30;73.40
9116;DHT22;4593;53.652;10.168;2023-05-18T03:56:47;7.40;73.20
9116;DHT22;4593;53.652;10.168;2023-05-18T03:59:13;7.50;73.20
9116;DHT22;4593;53.652;10.168;2023-05-18T04:01:38;7.50;72.40
9116;DHT22;4593;53.652;10.168;2023-05-18T04:04:07;7.50;72.40
9116;DHT22;4593;53.652;10.168;2023-05-18T04:06:33;7.60;72.50
9116;DHT22;4593;53.652;10.168;2023-05-18T04:09:00;7.60;72.10
9116;DHT22;4593;53.652;10.168;2023-05-18T04:11:29;7.60;71.60
9116;DHT22;4593;53.652;10.168;2023-05-18T04:13:55;7.70;72.10
9116;DHT22;4593;53.652;10.168;2023-05-18T04:16:22;7.70;72.40
9116;DHT22;4593;53.652;10.168;2023-05-18T04:18:48;7.80;71.50
9116;DHT22;4593;53.652;10.168;2023-05-18T04:21:14;7.80;70.80
9116;DHT22;4593;53.652;10.168;2023-05-18T04:23:40;7.90;70.40
9116;DHT22;4593;53.652;10.168;2023-05-18T04:26:06;7.90;70.40
9116;DHT22;4593;53.652;10.168;2023-05-18T04:28:33;8.00;70.90
9116;DHT22;4593;53.652;10.168;2023-05-18T04:30:59;8.10;70.50
9116;DHT22;4593;53.652;10.168;2023-05-18T04:33:27;8.20;69.20
9116;DHT22;4593;53.652;10.168;2023-05-18T04:35:53;8.20;69.20
9116;DHT22;4593;53.652;10.168;2023-05-18T04:38:20;8.30;68.60
9116;DHT22;4593;53.652;10.168;2023-05-18T04:40:48;8.30;68.90
9116;DHT22;4593;53.652;10.168;2023-05-18T04:43:18;8.40;68.70
9116;DHT22;4593;53.652;10.168;2023-05-18T04:45:44;8.50;68.30
9116;DHT22;4593;53.652;10.168;2023-05-18T04:48:15;8.60;68.10
9116;DHT22;4593;53.652;10.168;2023-05-18T04:50:42;8.60;66.90
9116;DHT22;4593;53.652;10.168;2023-05-18T04:53:08;8.60;66.80
9116;DHT22;4593;53.652;10.168;2023-05-18T04:55:36;8.70;67.70
9116;DHT22;4593;53.652;10.168;2023-05-18T04:58:02;8.80;66.50
9116;DHT22;4593;53.652;10.168;2023-05-18T05:00:29;8.80;65.40
9116;DHT22;4593;53.652;10.168;2023-05-18T05:02:56;8.70;64.40
9116;DHT22;4593;53.652;10.168;2023-05-18T05:05:22;8.70;64.40
9116;DHT22;4593;53.652;10.168;2023-05-18T05:07:51;8.80;64.70
9116;DHT22;4593;53.652;10.168;2023-05-18T05:10:18;8.80;64.40
9116;DHT22;4593;53.652;10.168;2023-05-18T05:12:44;9.00;64.00
9116;DHT22;4593;53.652;10.168;2023-05-18T05:15:10;9.00;63.20
9116;DHT22;4593;53.652;10.168;2023-05-18T05:17:36;9.20;62.70
9116;DHT22;4593;53.652;10.168;2023-05-18T05:20:02;9.20;62.30
9116;DHT22;4593;53.652;10.168;2023-05-18T05:22:28;9.10;62.70
9116;DHT22;4593;53.652;10.168;2023-05-18T05:24:53;9.10;62.30
9116;DHT22;4593;53.652;10.168;2023-05-18T05:27:19;9.30;62.20
9116;DHT22;4593;53.652;10.168;2023-05-18T05:29:46;9.30;62.10
9116;DHT22;4593;53.652;10.168;2023-05-18T05:32:12;9.30;62.00
9116;DHT22;4593;53.652;10.168;2023-05-18T05:34:38;9.30;62.60
9116;DHT22;4593;53.652;10.168;2023-05-18T05:37:04;9.30;61.10
9116;DHT22;4593;53.652;10.168;2023-05-18T05:39:30;9.20;62.00
9116;DHT22;4593;53.652;10.168;2023-05-18T05:41:56;9.30;60.50
9116;DHT22;4593;53.652;10.168;2023-05-18T05:44:22;9.20;59.00
9116;DHT22;4593;53.652;10.168;2023-05-18T05:46:47;9.10;59.00
9116;DHT22;4593;53.652;10.168;2023-05-18T05:49:13;9.20;59.90
9116;DHT22;4593;53.652;10.168;2023-05-18T05:51:38;9.40;59.50
9116;DHT22;4593;53.652;10.168;2023-05-18T05:54:04;9.50;58.80
9116;DHT22;4593;53.652;10.168;2023-05-18T05:56:30;9.50;58.60
9116;DHT22;4593;53.652;10.168;2023-05-18T05:58:55;9.60;58.20
9116;DHT22;4593;53.652;10.168;2023-05-18T06:01:21;9.80;59.30
9116;DHT22;4593;53.652;10.168;2023-05-18T06:03:47;9.70;57.60
9116;DHT22;4593;53.652;10.168;2023-05-18T06:06:13;9.40;57.30
9116;DHT22;4593;53.652;10.168;2023-05-18T06:08:39;9.20;57.20
9116;DHT22;4593;53.652;10.168;2023-05-18T06:11:04;9.20;57.90
9116;DHT22;4593;53.652;10.168;2023-05-18T06:13:30;9.40;59.10
9116;DHT22;4593;53.652;10.168;2023-05-18T06:15:56;9.60;58.00
9116;DHT22;4593;53.652;10.168;2023-05-18T06:18:22;9.60;57.20
9116;DHT22;4593;53.652;10.168;2023-05-18T06:20:48;9.40;57.70
9116;DHT22;4593;53.652;10.168;2023-05-18T06:23:14;9.50;58.90
9116;DHT22;4593;53.652;10.168;2023-05-18T06:25:40;9.60;58.10
9116;DHT22;4593;53.652;10.168;2023-05-18T06:28:05;9.50;58.00
9116;DHT22;4593;53.652;10.168;2023-05-18T06:30:31;9.60;57.50
9116;DHT22;4593;53.652;10.168;2023-05-18T06:32:57;9.80;56.70
9116;DHT22;4593;53.652;10.168;2023-05-18T06:35:22;9.90;56.90
9116;DHT22;4593;53.652;10.168;2023-05-18T06:37:49;9.80;56.70
9116;DHT22;4593;53.652;10.168;2023-05-18T06:40:15;10.00;57.10
9116;DHT22;4593;53.652;10.168;2023-05-18T06:42:40;10.00;56.50
9116;DHT22;4593;53.652;10.168;2023-05-18T06:45:06;9.80;56.00
9116;DHT22;4593;53.652;10.168;2023-05-18T06:47:32;9.70;56.70
9116;DHT22;4593;53.652;10.168;2023-05-18T06:49:58;9.70;57.30
9116;DHT22;4593;53.652;10.168;2023-05-18T06:52:23;9.90;57.00
9116;DHT22;4593;53.652;10.168;2023-05-18T06:54:49;10.00;56.60
9116;DHT22;4593;53.652;10.168;2023-05-18T06:57:15;10.40;56.30
9116;DHT22;4593;53.652;10.168;2023-05-18T06:59:40;10.20;54.90
9116;DHT22;4593;53.652;10.168;2023-05-18T07:02:06;10.10;55.20
9116;DHT22;4593;53.652;10.168;2023-05-18T07:04:31;10.40;55.30
9116;DHT22;4593;53.652;10.168;2023-05-18T07:06:57;10.50;55.40
9116;DHT22;4593;53.652;10.168;2023-05-18T07:09:24;10.80;54.00
9116;DHT22;4593;53.652;10.168;2023-05-18T07:11:49;10.90;53.40
9116;DHT22;4593;53.652;10.168;2023-05-18T07:14:15;10.90;53.40
9116;DHT22;4593;53.652;10.168;2023-05-18T07:16:41;11.30;52.40
9116;DHT22;4593;53.652;10.168;2023-05-18T07:19:08;11.10;51.70
9116;DHT22;4593;53.652;10.168;2023-05-18T07:21:34;10.80;54.00
9116;DHT22;4593;53.652;10.168;2023-05-18T07:23:59;10.80;53.50
9116;DHT22;4593;53.652;10.168;2023-05-18T07:26:25;10.90;54.30
9116;DHT22;4593;53.652;10.168;2023-05-18T07:28:51;11.20;52.60
9116;DHT22;4593;53.652;10.168;2023-05-18T07:31:17;11.60;54.20
9116;DHT22;4593;53.652;10.168;2023-05-18T07:33:45;11.80;51.50
9116;DHT22;4593;53.652;10.168;2023-05-18T07:36:12;11.70;51.10
9116;DHT22;4593;53.652;10.168;2023-05-18T07:38:38;11.70;51.50
9116;DHT22;4593;53.652;10.168;2023-05-18T07:41:04;11.60;51.30
9116;DHT22;4593;53.652;10.168;2023-05-18T07:43:30;11.10;53.20
9116;DHT22;4593;53.652;10.168;2023-05-18T07:45:55;11.10;52.80
9116;DHT22;4593;53.652;10.168;2023-05-18T07:48:21;11.60;52.90
9116;DHT22;4593;53.652;10.168;2023-05-18T07:50:47;12.00;51.40
9116;DHT22;4593;53.652;10.168;2023-05-18T07:53:12;12.40;52.20
9116;DHT22;4593;53.652;10.168;2023-05-18T07:55:38;12.60;50.40
9116;DHT22;4593;53.652;10.168;2023-05-18T07:58:03;12.40;51.10
9116;DHT22;4593;53.652;10.168;2023-05-18T08:00:29;12.40;50.10
9116;DHT22;4593;53.652;10.168;2023-05-18T08:02:55;12.30;50.10
9116;DHT22;4593;53.652;10.168;2023-05-18T08:05:21;11.90;50.60
9116;DHT22;4593;53.652;10.168;2023-05-18T08:07:48;11.50;51.00
9116;DHT22;4593;53.652;10.168;2023-05-18T08:10:14;11.40;51.90
9116;DHT22;4593;53.652;10.168;2023-05-18T08:12:39;11.60;51.80
9116;DHT22;4593;53.652;10.168;2023-05-18T08:15:06;11.50;51.30
9116;DHT22;4593;53.652;10.168;2023-05-18T08:17:32;11.50;51.60
9116;DHT22;4593;53.652;10.168;2023-05-18T08:19:57;11.50;52.20
9116;DHT22;4593;53.652;10.168;2023-05-18T08:22:24;11.50;52.80
9116;DHT22;4593;53.652;10.168;2023-05-18T08:24:49;11.80;51.30
9116;DHT22;4593;53.652;10.168;2023-05-18T08:27:15;11.70;51.90
9116;DHT22;4593;53.652;10.168;2023-05-18T08:29:41;12.50;56.70
9116;DHT22;4593;53.652;10.168;2023-05-18T08:32:06;13.50;52.50
9116;DHT22;4593;53.652;10.168;2023-05-18T08:34:33;13.80;46.10
9116;DHT22;4593;53.652;10.168;2023-05-18T08:36:59;14.20;47.50
9116;DHT22;4593;53.652;10.168;2023-05-18T08:39:25;14.80;48.00
9116;DHT22;4593;53.652;10.168;2023-05-18T08:41:58;14.90;47.30
9116;DHT22;4593;53.652;10.168;2023-05-18T08:44:30;14.90;49.60
9116;DHT22;4593;53.652;10.168;2023-05-18T08:46:59;15.00;47.60
9116;DHT22;4593;53.652;10.168;2023-05-18T08:49:26;15.10;45.10
9116;DHT22;4593;53.652;10.168;2023-05-18T08:51:56;14.70;43.30
9116;DHT22;4593;53.652;10.168;2023-05-18T08:54:25;14.60;45.70
9116;DHT22;4593;53.652;10.168;2023-05-18T08:56:52;14.30;45.90
9116;DHT22;4593;53.652;10.168;2023-05-18T08:59:21;14.30;48.10
9116;DHT22;4593;53.652;10.168;2023-05-18T09:01:47;14.00;45.10
9116;DHT22;4593;53.652;10.168;2023-05-18T09:04:14;13.60;45.10
9116;DHT22;4593;53.652;10.168;2023-05-18T09:06:40;13.30;46.40
9116;DHT22;4593;53.652;10.168;2023-05-18T09:09:08;13.40;48.40
9116;DHT22;4593;53.652;10.168;2023-05-18T09:11:34;13.50;48.30
9116;DHT22;4593;53.652;10.168;2023-05-18T09:14:00;13.80;46.80
9116;DHT22;4593;53.652;10.168;2023-05-18T09:16:26;13.30;45.60
9116;DHT22;4593;53.652;10.168;2023-05-18T09:18:52;13.20;48.20
9116;DHT22;4593;53.652;10.168;2023-05-18T09:21:18;13.00;46.90
9116;DHT22;4593;53.652;10.168;2023-05-18T09:23:44;12.70;48.20
9116;DHT22;4593;53.652;10.168;2023-05-18T09:26:10;13.00;48.20
9116;DHT22;4593;53.652;10.168;2023-05-18T09:28:41;13.40;47.10
9116;DHT22;4593;53.652;10.168;2023-05-18T09:31:08;13.30;47.00
9116;DHT22;4593;53.652;10.168;2023-05-18T09:33:37;13.10;46.80
9116;DHT22;4593;53.652;10.168;2023-05-18T09:36:07;12.20;49.40
9116;DHT22;4593;53.652;10.168;2023-05-18T09:38:37;12.60;50.40
9116;DHT22;4593;53.652;10.168;2023-05-18T09:41:08;12.60;48.30
9116;DHT22;4593;53.652;10.168;2023-05-18T09:43:35;13.00;50.60
9116;DHT22;4593;53.652;10.168;2023-05-18T09:46:05;13.50;49.20
9116;DHT22;4593;53.652;10.168;2023-05-18T09:48:31;13.40;47.30
9116;DHT22;4593;53.652;10.168;2023-05-18T09:50:58;13.30;47.90
9116;DHT22;4593;53.652;10.168;2023-05-18T09:53:24;13.50;48.60
9116;DHT22;4593;53.652;10.168;2023-05-18T09:55:50;13.60;47.70
9116;DHT22;4593;53.652;10.168;2023-05-18T09:58:16;13.60;47.50
9116;DHT22;4593;53.652;10.168;2023-05-18T10:00:43;13.80;47.20
9116;DHT22;4593;53.652;10.168;2023-05-18T10:03:21;14.00;48.60
9116;DHT22;4593;53.652;10.168;2023-05-18T10:05:48;14.30;47.80
9116;DHT22;4593;53.652;10.168;2023-05-18T10:08:15;14.10;45.40
9116;DHT22;4593;53.652;10.168;2023-05-18T10:10:45;13.40;47.30
9116;DHT22;4593;53.652;10.168;2023-05-18T10:13:16;13.60;48.60
9116;DHT22;4593;53.652;10.168;2023-05-18T10:15:49;13.70;47.40
9116;DHT22;4593;53.652;10.168;2023-05-18T10:18:27;13.70;47.70
9116;DHT22;4593;53.652;10.168;2023-05-18T10:20:55;14.00;47.70
9116;DHT22;4593;53.652;10.168;2023-05-18T10:23:22;14.00;46.90
9116;DHT22;4593;53.652;10.168;2023-05-18T10:25:49;13.90;46.80
9116;DHT22;4593;53.652;10.168;2023-05-18T10:30:49;13.10;49.60
9116;DHT22;4593;53.652;10.168;2023-05-18T10:33:16;13.40;49.00
9116;DHT22;4593;53.652;10.168;2023-05-18T10:35:44;13.70;47.80
9116;DHT22;4593;53.652;10.168;2023-05-18T10:38:26;13.80;47.60
9116;DHT22;4593;53.652;10.168;2023-05-18T10:40:56;13.90;46.80
9116;DHT22;4593;53.652;10.168;2023-05-18T10:43:24;13.80;47.10
9116;DHT22;4593;53.652;10.168;2023-05-18T10:45:54;13.90;46.70
9116;DHT22;4593;53.652;10.168;2023-05-18T10:48:21;14.10;49.90
9116;DHT22;4593;53.652;10.168;2023-05-18T10:50:52;14.30;47.20
9116;DHT22;4593;53.652;10.168;2023-05-18T10:53:19;14.40;46.80
9116;DHT22;4593;53.652;10.168;2023-05-18T10:55:49;14.50;47.70
9116;DHT22;4593;53.652;10.168;2023-05-18T10:58:18;14.70;46.60
9116;DHT22;4593;53.652;10.168;2023-05-18T11:00:57;14.70;45.10
9116;DHT22;4593;53.652;10.168;2023-05-18T11:03:24;14.00;46.20
9116;DHT22;4593;53.652;10.168;2023-05-18T11:06:06;13.80;47.00
9116;DHT22;4593;53.652;10.168;2023-05-18T11:08:33;14.00;47.60
9116;DHT22;4593;53.652;10.168;2023-05-18T11:11:04;14.30;48.30
9116;DHT22;4593;53.652;10.168;2023-05-18T11:13:33;14.60;47.90
9116;DHT22;4593;53.652;10.168;2023-05-18T11:16:03;14.80;48.40
9116;DHT22;4593;53.652;10.168;2023-05-18T11:18:45;15.00;46.10
9116;DHT22;4593;53.652;10.168;2023-05-18T11:26:44;14.50;44.60
9116;DHT22;4593;53.652;10.168;2023-05-18T11:29:28;14.20;45.80
9116;DHT22;4593;53.652;10.168;2023-05-18T11:31:54;14.10;48.50
9116;DHT22;4593;53.652;10.168;2023-05-18T11:37:02;14.20;47.10
9116;DHT22;4593;53.652;10.168;2023-05-18T11:39:28;13.90;46.50
9116;DHT22;4593;53.652;10.168;2023-05-18T11:42:01;13.70;46.90
9116;DHT22;4593;53.652;10.168;2023-05-18T11:44:27;13.20;47.60
9116;DHT22;4593;53.652;10.168;2023-05-18T11:47:09;13.30;49.20
9116;DHT22;4593;53.652;10.168;2023-05-18T11:49:44;13.40;50.70
9116;DHT22;4593;53.652;10.168;2023-05-18T11:59:58;13.40;48.80
9116;DHT22;4593;53.652;10.168;2023-05-18T12:02:32;13.60;48.10
9116;DHT22;4593;53.652;10.168;2023-05-18T12:04:59;13.40;46.90
9116;DHT22;4593;53.652;10.168;2023-05-18T12:07:26;13.40;47.90
9116;DHT22;4593;53.652;10.168;2023-05-18T12:09:57;13.50;47.00
9116;DHT22;4593;53.652;10.168;2023-05-18T12:12:23;13.50;47.80
9116;DHT22;4593;53.652;10.168;2023-05-18T12:14:57;13.50;48.60
9116;DHT22;4593;53.652;10.168;2023-05-18T12:20:11;13.50;49.00
9116;DHT22;4593;53.652;10.168;2023-05-18T12:22:38;13.60;48.80
9116;DHT22;4593;53.652;10.168;2023-05-18T12:25:05;13.70;49.20
9116;DHT22;4593;53.652;10.168;2023-05-18T12:27:39;13.70;48.30
9116;DHT22;4593;53.652;10.168;2023-05-18T12:30:08;13.30;49.40
9116;DHT22;4593;53.652;10.168;2023-05-18T12:32:36;13.40;49.00
9116;DHT22;4593;53.652;10.168;2023-05-18T12:35:03;13.60;49.10
9116;DHT22;4593;53.652;10.168;2023-05-18T12:37:30;13.70;49.20
9116;DHT22;4593;53.652;10.168;2023-05-18T12:39:56;13.90;49.10
9116;DHT22;4593;53.652;10.168;2023-05-18T12:42:21;13.70;48.40
9116;DHT22;4593;53.652;10.168;2023-05-18T12:44:47;13.70;48.40
9116;DHT22;4593;53.652;10.168;2023-05-18T12:47:15;13.60;48.20
9116;DHT22;4593;53.652;10.168;2023-05-18T12:49:42;13.60;48.60
9116;DHT22;4593;53.652;10.168;2023-05-18T12:52:13;13.70;48.50
9116;DHT22;4593;53.652;10.168;2023-05-18T12:54:55;14.00;48.70
9116;DHT22;4593;53.652;10.168;2023-05-18T12:57:24;14.10;47.30
9116;DHT22;4593;53.652;10.168;2023-05-18T12:59:55;14.00;47.20
9116;DHT22;4593;53.652;10.168;2023-05-18T13:02:33;14.20;46.80
9116;DHT22;4593;53.652;10.168;2023-05-18T13:05:07;14.20;46.80
9116;DHT22;4593;53.652;10.168;2023-05-18T13:07:37;14.30;46.00
9116;DHT22;4593;53.652;10.168;2023-05-18T13:10:10;14.30;45.70
9116;DHT22;4593;53.652;10.168;2023-05-18T13:12:47;14.30;46.90
9116;DHT22;4593;53.652;10.168;2023-05-18T13:17:54;13.90;48.10
9116;DHT22;4593;53.652;10.168;2023-05-18T13:22:55;14.00;47.70
9116;DHT22;4593;53.652;10.168;2023-05-18T13:25:24;14.10;47.60
9116;DHT22;4593;53.652;10.168;2023-05-18T13:27:51;14.20;46.90
9116;DHT22;4593;53.652;10.168;2023-05-18T13:30:20;14.20;46.10
9116;DHT22;4593;53.652;10.168;2023-05-18T13:32:45;14.00;46.40
9116;DHT22;4593;53.652;10.168;2023-05-18T13:35:11;14.00;46.80
9116;DHT22;4593;53.652;10.168;2023-05-18T13:37:38;14.00;46.90
9116;DHT22;4593;53.652;10.168;2023-05-18T13:40:04;14.30;46.80
9116;DHT22;4593;53.652;10.168;2023-05-18T13:42:30;14.40;46.10
9116;DHT22;4593;53.652;10.168;2023-05-18T13:44:56;14.40;45.80
9116;DHT22;4593;53.652;10.168;2023-05-18T13:47:21;14.40;45.10
9116;DHT22;4593;53.652;10.168;2023-05-18T13:49:47;14.30;45.30
9116;DHT22;4593;53.652;10.168;2023-05-18T13:52:12;14.50;45.80
9116;DHT22;4593;53.652;10.168;2023-05-18T13:54:38;14.60;45.20
9116;DHT22;4593;53.652;10.168;2023-05-18T13:57:04;14.70;45.90
9116;DHT22;4593;53.652;10.168;2023-05-18T13:59:30;14.60;45.50
9116;DHT22;4593;53.652;10.168;2023-05-18T14:02:02;14.70;45.40
9116;DHT22;4593;53.652;10.168;2023-05-18T14:04:27;14.70;45.70
9116;DHT22;4593;53.652;10.168;2023-05-18T14:06:53;14.70;46.50
9116;DHT22;4593;53.652;10.168;2023-05-18T14:09:21;14.80;46.00
9116;DHT22;4593;53.652;10.168;2023-05-18T14:11:46;14.60;45.60
9116;DHT22;4593;53.652;10.168;2023-05-18T14:14:12;14.60;46.00
9116;DHT22;4593;53.652;10.168;2023-05-18T14:16:38;14.60;46.20
9116;DHT22;4593;53.652;10.168;2023-05-18T14:19:03;14.70;46.00
9116;DHT22;4593;53.652;10.168;2023-05-18T14:21:29;14.70;45.40
9116;DHT22;4593;53.652;10.168;2023-05-18T14:23:55;14.70;44.60
9116;DHT22;4593;53.652;10.168;2023-05-18T14:26:21;14.90;45.50
9116;DHT22;4593;53.652;10.168;2023-05-18T14:28:47;14.80;43.70
9116;DHT22;4593;53.652;10.168;2023-05-18T14:31:13;14.90;45.00
9116;DHT22;4593;53.652;10.168;2023-05-18T14:33:38;15.00;45.10
9116;DHT22;4593;53.652;10.168;2023-05-18T14:36:04;15.20;44.50
9116;DHT22;4593;53.652;10.168;2023-05-18T14:38:30;15.20;43.60
9116;DHT22;4593;53.652;10.168;2023-05-18T14:40:55;15.30;43.00
9116;DHT22;4593;53.652;10.168;2023-05-18T14:43:21;15.30;42.60
9116;DHT22;4593;53.652;10.168;2023-05-18T14:45:47;15.30;42.00
9116;DHT22;4593;53.652;10.168;2023-05-18T14:48:12;14.90;42.50
9116;DHT22;4593;53.652;10.168;2023-05-18T14:50:38;14.80;43.10
9116;DHT22;4593;53.652;10.168;2023-05-18T14:53:04;14.70;42.80
9116;DHT22;4593;53.652;10.168;2023-05-18T14:55:29;14.80;43.10
9116;DHT22;4593;53.652;10.168;2023-05-18T14:57:55;14.80;43.40
9116;DHT22;4593;53.652;10.168;2023-05-18T15:00:22;15.00;43.50
9116;DHT22;4593;53.652;10.168;2023-05-18T15:02:47;15.20;43.30
9116;DHT22;4593;53.652;10.168;2023-05-18T15:05:13;15.40;43.60
9116;DHT22;4593;53.652;10.168;2023-05-18T15:07:39;15.40;43.00
9116;DHT22;4593;53.652;10.168;2023-05-18T15:10:05;15.30;43.20
9116;DHT22;4593;53.652;10.168;2023-05-18T15:12:31;15.30;42.70
9116;DHT22;4593;53.652;10.168;2023-05-18T15:14:57;15.40;43.30
9116;DHT22;4593;53.652;10.168;2023-05-18T15:17:22;15.10;43.10
9116;DHT22;4593;53.652;10.168;2023-05-18T15:19:48;15.10;43.30
9116;DHT22;4593;53.652;10.168;2023-05-18T15:22:14;15.20;43.70
9116;DHT22;4593;53.652;10.168;2023-05-18T15:24:40;15.30;43.40
9116;DHT22;4593;53.652;10.168;2023-05-18T15:27:06;15.30;43.70
9116;DHT22;4593;53.652;10.168;2023-05-18T15:29:31;15.40;42.80
9116;DHT22;4593;53.652;10.168;2023-05-18T15:31:57;15.50;41.70
9116;DHT22;4593;53.652;10.168;2023-05-18T15:34:23;15.20;41.80
9116;DHT22;4593;53.652;10.168;2023-05-18T15:36:48;15.30;41.90
9116;DHT22;4593;53.652;10.168;2023-05-18T15:39:14;15.20;42.00
9116;DHT22;4593;53.652;10.168;2023-05-18T15:41:40;15.40;43.80
9116;DHT22;4593;53.652;10.168;2023-05-18T15:44:05;15.30;43.90
9116;DHT22;4593;53.652;10.168;2023-05-18T15:46:31;15.40;43.80
9116;DHT22;4593;53.652;10.168;2023-05-18T15:49:00;15.70;44.20
9116;DHT22;4593;53.652;10.168;2023-05-18T15:51:25;15.70;43.20
9116;DHT22;4593;53.652;10.168;2023-05-18T15:53:51;15.60;43.20
9116;DHT22;4593;53.652;10.168;2023-05-18T15:56:17;15.60;43.50
9116;DHT22;4593;53.652;10.168;2023-05-18T15:58:43;15.70;42.10
9116;DHT22;4593;53.652;10.168;2023-05-18T16:01:09;15.80;42.40
9116;DHT22;4593;53.652;10.168;2023-05-18T16:03:35;15.70;41.10
9116;DHT22;4593;53.652;10.168;2023-05-18T16:06:01;15.60;40.60
9116;DHT22;4593;53.652;10.168;2023-05-18T16:08:27;15.30;41.00
9116;DHT22;4593;53.652;10.168;2023-05-18T16:10:52;15.20;41.30
9116;DHT22;4593;53.652;10.168;2023-05-18T16:13:18;15.40;41.60
9116;DHT22;4593;53.652;10.168;2023-05-18T16:15:47;15.50;40.30
9116;DHT22;4593;53.652;10.168;2023-05-18T16:18:12;15.40;40.50
9116;DHT22;4593;53.652;10.168;2023-05-18T16:20:38;15.20;41.40